La Sarre, Canada
Current Conditions -  °F | °C
As of 7:00 PM on Sunday 23 Nov 2014 (Local Time) from CYUY Reporting Station
Drizzle Drizzle  
Wind Chill: 33°   Ceiling: 100
Heat Index: 39°   Visibility: 1.5mi
Dew Point: 39°   Wind: 9mph
Humidity: 100%   Direction: 180°S
Pressure: 29.67"   Gusts: 17mph
Location:  48.8°N, 79.2°W
Report Text: CYUY 240000Z 18008G15KT 1 1/2SM -DZ BR OVC001 04/04 A2967 RMK SF8 SLP061
Loading
Personal Weather Stations






























Interactive Weather Map New forecast layout! Learn more

10-Day Weather Forecast

Advertisements
Track Severe Weather on mobile